Time;durP1;ratioP1;P1;durP2;ratioP2;P2;SDS_P1;SDS_P2;PMS_P1;PMS_P2;Temp;Humidity;BMP_temperature;BMP_pressure;BME280_temperature;BME280_humidity;BME280_pressure;Samples;Min_cycle;Max_cycle;Signal;HPM_P1;HPM_P2
2020/12/10 00:00:30;;;;;;;15.53;12.67;;;;;;;9.16;100.00;95832.94;5054496;28;20202;-82
2020/12/10 00:02:56;;;;;;;17.03;11.50;;;;;;;9.15;100.00;95839.16;5054448;28;20245;-83
2020/12/10 00:05:23;;;;;;;15.10;12.20;;;;;;;9.13;100.00;95847.16;5054552;28;20222;-83
2020/12/10 00:07:51;;;;;;;12.07;8.73;;;;;;;9.17;100.00;95842.44;5054663;28;20202;-82
2020/12/10 00:10:18;;;;;;;11.57;10.00;;;;;;;9.13;100.00;95847.16;5053962;28;20197;-82
2020/12/10 00:12:45;;;;;;;12.90;10.60;;;;;;;9.11;100.00;95846.53;5054544;28;20212;-82
2020/12/10 00:15:13;;;;;;;15.70;12.57;;;;;;;9.09;100.00;95842.41;5054387;28;20225;-82
2020/12/10 00:17:40;;;;;;;12.90;11.63;;;;;;;9.15;100.00;95833.91;5054182;28;20280;-82
2020/12/10 00:20:09;;;;;;;13.67;12.10;;;;;;;9.16;100.00;95823.25;5053831;28;20283;-83
2020/12/10 00:22:36;;;;;;;17.33;11.97;;;;;;;9.17;100.00;95826.69;5054180;28;20201;-82
2020/12/10 00:25:06;;;;;;;15.10;13.27;;;;;;;9.16;100.00;95830.31;5053833;28;20222;-82
2020/12/10 00:27:33;;;;;;;14.03;11.33;;;;;;;9.16;100.00;95825.06;5054040;28;20208;-82
2020/12/10 00:30:00;;;;;;;12.67;10.27;;;;;;;9.17;100.00;95832.75;5053001;28;20285;-83
2020/12/10 00:32:27;;;;;;;19.30;11.93;;;;;;;9.18;100.00;95829.16;5052274;28;20205;-81
2020/12/10 00:34:56;;;;;;;12.57;10.90;;;;;;;9.18;100.00;95823.09;5053099;28;20678;-82
2020/12/10 00:37:24;;;;;;;16.27;11.47;;;;;;;9.21;100.00;95833.25;5053887;28;20666;-82
2020/12/10 00:39:50;;;;;;;13.13;11.33;;;;;;;9.21;100.00;95828.84;5053673;28;20194;-83
2020/12/10 00:42:18;;;;;;;11.73;10.53;;;;;;;9.20;100.00;95818.50;5053453;28;20289;-82
2020/12/10 00:44:45;;;;;;;15.50;11.03;;;;;;;9.21;100.00;95818.38;5053509;28;20261;-83
2020/12/10 00:47:12;;;;;;;16.20;11.83;;;;;;;9.24;100.00;95817.19;5053561;28;20206;-82
2020/12/10 00:49:39;;;;;;;12.27;10.80;;;;;;;9.23;100.00;95820.81;5053830;28;20659;-82
2020/12/10 00:52:06;;;;;;;12.87;10.87;;;;;;;9.26;100.00;95825.75;5053196;28;20204;-82
2020/12/10 00:54:32;;;;;;;13.20;11.00;;;;;;;9.21;100.00;95822.75;5053433;28;20204;-82
2020/12/10 00:56:59;;;;;;;13.53;11.20;;;;;;;9.20;100.00;95816.69;5053397;28;20205;-83
2020/12/10 00:59:27;;;;;;;12.87;10.63;;;;;;;9.28;100.00;95816.75;5053352;28;20637;-82
2020/12/10 01:01:54;;;;;;;11.67;10.20;;;;;;;9.33;100.00;95811.00;5052893;28;20194;-83
2020/12/10 01:04:24;;;;;;;19.80;10.57;;;;;;;9.35;100.00;95813.44;5053226;28;20597;-82
2020/12/10 01:06:51;;;;;;;11.97;9.87;;;;;;;9.37;100.00;95812.31;5052116;28;20202;-82
2020/12/10 01:09:18;;;;;;;9.47;8.03;;;;;;;9.43;100.00;95810.84;5053143;28;20209;-82
2020/12/10 01:11:45;;;;;;;14.20;10.50;;;;;;;9.44;100.00;95810.69;5052821;28;20193;-82
2020/12/10 01:14:13;;;;;;;12.80;9.67;;;;;;;9.48;100.00;95808.53;5053225;28;20205;-83
2020/12/10 01:16:41;;;;;;;13.23;9.93;;;;;;;9.42;100.00;95798.69;5053100;28;20627;-83
2020/12/10 01:19:10;;;;;;;11.13;9.30;;;;;;;9.49;100.00;95789.19;5053042;28;20197;-83
2020/12/10 01:21:37;;;;;;;11.07;9.83;;;;;;;9.45;100.00;95786.06;5052407;28;20618;-83
2020/12/10 01:24:04;;;;;;;14.40;9.47;;;;;;;9.52;100.00;95797.59;5053131;28;20260;-82
2020/12/10 01:26:33;;;;;;;12.77;10.20;;;;;;;9.53;100.00;95795.78;5052669;28;20641;-83
2020/12/10 01:29:01;;;;;;;16.77;10.40;;;;;;;9.55;100.00;95785.09;5052780;28;20198;-83
2020/12/10 01:31:28;;;;;;;11.30;9.50;;;;;;;9.54;100.00;95789.53;5052515;28;20251;-81
2020/12/10 01:33:56;;;;;;;10.00;7.97;;;;;;;9.62;100.00;95786.09;5052749;28;20284;-82
2020/12/10 01:36:24;;;;;;;13.53;9.60;;;;;;;9.62;100.00;95784.28;5052549;28;20297;-82
2020/12/10 01:38:52;;;;;;;14.67;10.37;;;;;;;9.56;100.00;95777.09;5052642;28;20202;-82
2020/12/10 01:41:19;;;;;;;14.60;9.40;;;;;;;9.52;100.00;95767.88;5052592;28;20202;-82
2020/12/10 01:43:47;;;;;;;17.17;11.70;;;;;;;9.54;100.00;95765.91;5052882;28;20631;-82
2020/12/10 01:46:14;;;;;;;11.27;10.17;;;;;;;9.57;100.00;95756.91;5052518;28;20300;-83
2020/12/10 01:48:43;;;;;;;15.57;10.80;;;;;;;9.52;100.00;95746.91;5052511;28;20235;-82
2020/12/10 01:51:11;;;;;;;13.87;11.00;;;;;;;9.54;100.00;95747.56;5052072;28;20202;-82
2020/12/10 01:53:38;;;;;;;18.47;10.37;;;;;;;9.64;100.00;95750.03;5052380;28;20233;-82
2020/12/10 01:56:05;;;;;;;13.60;11.37;;;;;;;9.63;100.00;95733.47;5052266;28;20198;-82
2020/12/10 01:58:32;;;;;;;16.27;11.63;;;;;;;9.57;100.00;95743.78;5052307;28;20237;-83
2020/12/10 02:00:59;;;;;;;18.83;10.43;;;;;;;9.60;100.00;95739.03;5052022;28;20193;-83
2020/12/10 02:03:25;;;;;;;15.80;11.10;;;;;;;9.67;100.00;95728.69;5052227;28;20205;-83
2020/12/10 02:05:52;;;;;;;12.93;9.23;;;;;;;9.68;100.00;95725.09;5051878;28;20312;-83
2020/12/10 02:08:20;;;;;;;14.23;9.83;;;;;;;9.68;100.00;95720.66;5052005;28;20198;-84
2020/12/10 02:10:47;;;;;;;13.47;8.37;;;;;;;9.66;100.00;95714.75;5051712;28;20198;-83
2020/12/10 02:13:13;;;;;;;16.37;9.43;;;;;;;9.70;100.00;95726.56;5052044;28;20204;-83
2020/12/10 02:15:47;;;;;;;17.60;7.57;;;;;;;9.76;100.00;95722.44;5051907;28;20682;-83
2020/12/10 02:18:14;;;;;;;9.27;8.30;;;;;;;9.73;100.00;95709.66;5051925;28;20186;-83
2020/12/10 02:20:41;;;;;;;10.97;7.03;;;;;;;9.73;100.00;95704.41;5051601;28;20272;-83
2020/12/10 02:23:10;;;;;;;10.60;6.00;;;;;;;9.77;100.00;95703.09;5051910;28;20202;-82
2020/12/10 02:25:38;;;;;;;14.03;7.70;;;;;;;9.75;100.00;95705.06;5051410;28;20706;-83
2020/12/10 02:28:10;;;;;;;8.17;6.50;;;;;;;9.79;100.00;95708.16;5051888;28;20202;-83
2020/12/10 02:30:37;;;;;;;10.03;6.13;;;;;;;9.76;100.00;95717.19;5052047;28;20640;-82
2020/12/10 02:33:06;;;;;;;10.63;6.73;;;;;;;9.77;100.00;95713.59;5052052;28;20202;-83
2020/12/10 02:35:34;;;;;;;9.07;7.37;;;;;;;9.80;100.00;95718.47;5051550;28;20198;-83
2020/12/10 02:38:03;;;;;;;9.87;5.87;;;;;;;9.86;100.00;95720.44;5051848;28;20194;-82
2020/12/10 02:40:34;;;;;;;14.90;6.83;;;;;;;9.83;100.00;95720.78;5051766;28;20237;-83
2020/12/10 02:43:01;;;;;;;13.20;8.23;;;;;;;9.85;100.00;95728.50;5052024;28;20361;-83
2020/12/10 02:45:28;;;;;;;17.07;7.00;;;;;;;9.87;100.00;95726.50;5051510;28;20226;-86
2020/12/10 02:47:56;;;;;;;9.57;5.93;;;;;;;9.96;100.00;95730.78;5051868;28;20252;-82
2020/12/10 02:50:23;;;;;;;11.60;7.13;;;;;;;9.90;100.00;95747.19;5051475;28;20288;-83
2020/12/10 02:52:50;;;;;;;15.07;7.73;;;;;;;9.91;100.00;95736.53;5051648;28;20294;-83
2020/12/10 02:55:17;;;;;;;16.43;6.70;;;;;;;9.92;100.00;95732.91;5051304;28;20209;-83
2020/12/10 02:57:45;;;;;;;6.73;5.07;;;;;;;10.03;100.00;95733.53;5051906;28;20202;-83
2020/12/10 03:00:12;;;;;;;8.53;5.43;;;;;;;10.02;100.00;95731.91;5051270;28;20202;-83
2020/12/10 03:02:39;;;;;;;15.03;7.13;;;;;;;9.95;100.00;95731.75;5051648;28;20251;-83
2020/12/10 03:05:07;;;;;;;8.23;4.47;;;;;;;10.02;100.00;95727.47;5051106;28;20308;-82
2020/12/10 03:07:34;;;;;;;13.40;6.23;;;;;;;9.94;100.00;95720.44;5051501;28;20242;-83
2020/12/10 03:10:01;;;;;;;15.10;6.57;;;;;;;9.92;100.00;95713.72;5051382;28;20244;-82
2020/12/10 03:12:28;;;;;;;9.57;6.10;;;;;;;9.97;100.00;95706.16;5051418;28;20198;-83
2020/12/10 03:14:56;;;;;;;7.57;5.60;;;;;;;9.95;100.00;95695.00;5051111;28;20225;-83
2020/12/10 03:17:23;;;;;;;9.37;6.43;;;;;;;9.97;100.00;95687.78;5051614;28;20202;-83
2020/12/10 03:19:50;;;;;;;9.57;4.93;;;;;;;9.97;100.00;95693.84;5051342;28;20197;-83
2020/12/10 03:22:17;;;;;;;10.87;5.63;;;;;;;9.94;100.00;95691.56;5051057;28;20642;-84
2020/12/10 03:24:43;;;;;;;12.37;5.23;;;;;;;9.96;100.00;95691.41;5051160;28;20225;-83
2020/12/10 03:27:10;;;;;;;18.10;6.77;;;;;;;10.00;100.00;95682.19;5051612;28;20228;-83
2020/12/10 03:29:37;;;;;;;11.20;6.53;;;;;;;9.98;100.00;95700.75;5051572;28;20285;-83
2020/12/10 03:32:06;;;;;;;14.07;6.80;;;;;;;10.00;100.00;95697.94;5054646;28;20255;-83
2020/12/10 03:34:33;;;;;;;9.70;6.87;;;;;;;9.93;100.00;95713.53;5054989;28;20198;-83
2020/12/10 03:37:01;;;;;;;7.33;6.30;;;;;;;9.97;100.00;95720.09;5054722;28;20697;-83
2020/12/10 03:39:30;;;;;;;9.53;6.77;;;;;;;9.96;100.00;95717.66;5054929;28;20259;-82
2020/12/10 03:41:58;;;;;;;12.30;7.23;;;;;;;9.96;100.00;95717.66;5054915;28;20339;-83
2020/12/10 03:44:25;;;;;;;13.30;6.47;;;;;;;9.95;100.00;95708.97;5054576;28;20682;-83
2020/12/10 03:46:53;;;;;;;10.50;5.67;;;;;;;9.94;100.00;95719.59;5054589;28;20292;-83
2020/12/10 03:49:21;;;;;;;10.97;5.73;;;;;;;9.98;100.00;95718.31;5055073;28;20194;-84
2020/12/10 03:51:48;;;;;;;11.80;5.00;;;;;;;9.95;100.00;95726.50;5054549;28;20607;-84
2020/12/10 03:54:15;;;;;;;12.70;5.60;;;;;;;10.00;100.00;95729.44;5054409;28;20194;-83
2020/12/10 03:56:54;;;;;;;11.67;5.70;;;;;;;10.03;100.00;95726.47;5054793;28;20627;-83
2020/12/10 03:59:20;;;;;;;9.10;5.80;;;;;;;9.98;100.00;95705.19;5048261;28;20199;-83
2020/12/10 04:01:47;;;;;;;11.00;4.50;;;;;;;9.94;100.00;95709.94;5051854;28;20202;-83
2020/12/10 04:04:14;;;;;;;13.20;6.87;;;;;;;9.93;100.00;95696.97;5052204;28;20197;-83
2020/12/10 04:06:43;;;;;;;15.90;5.87;;;;;;;9.96;100.00;95691.41;5051858;28;20202;-83
2020/12/10 04:09:10;;;;;;;11.43;7.03;;;;;;;9.95;100.00;95701.06;5052136;28;20194;-83
2020/12/10 04:11:38;;;;;;;11.47;6.27;;;;;;;9.96;100.00;95705.34;5051783;28;20197;-83
2020/12/10 04:14:05;;;;;;;9.37;5.40;;;;;;;9.95;100.00;95711.56;5051840;28;20209;-84
2020/12/10 04:16:31;;;;;;;10.30;5.73;;;;;;;9.91;100.00;95705.03;5051871;28;20202;-83
2020/12/10 04:18:58;;;;;;;9.07;5.80;;;;;;;9.94;100.00;95704.69;5051452;28;20229;-83
2020/12/10 04:21:25;;;;;;;8.47;6.60;;;;;;;9.93;100.00;95702.22;5051555;28;20256;-84
2020/12/10 04:23:53;;;;;;;12.73;7.83;;;;;;;9.96;100.00;95707.16;5051824;28;20263;-83
2020/12/10 04:26:20;;;;;;;8.13;5.60;;;;;;;9.93;100.00;95702.22;5051433;28;20264;-83
2020/12/10 04:28:47;;;;;;;16.27;6.47;;;;;;;9.92;100.00;95709.28;5051307;28;20259;-83
2020/12/10 04:31:16;;;;;;;12.40;7.37;;;;;;;9.85;100.00;95708.31;5050629;28;20198;-83
2020/12/10 04:33:42;;;;;;;14.87;7.97;;;;;;;9.92;100.00;95708.47;5051505;28;20244;-83
2020/12/10 04:36:09;;;;;;;14.17;10.13;;;;;;;9.90;100.00;95705.19;5051432;28;20194;-83
2020/12/10 04:38:36;;;;;;;12.90;7.13;;;;;;;9.93;100.00;95702.22;5051509;28;20202;-83
2020/12/10 04:41:06;;;;;;;11.13;6.53;;;;;;;9.87;100.00;95710.75;5051161;28;20209;-83
2020/12/10 04:43:32;;;;;;;15.37;9.40;;;;;;;9.93;100.00;95707.47;5050107;28;20206;-83
2020/12/10 04:46:01;;;;;;;10.73;6.00;;;;;;;9.92;100.00;95709.28;5051137;28;20268;-84
2020/12/10 04:48:28;;;;;;;15.40;5.63;;;;;;;9.86;100.00;95701.25;5051204;28;20293;-83
2020/12/10 04:50:57;;;;;;;11.03;6.33;;;;;;;9.93;100.00;95720.59;5051095;28;20209;-82
2020/12/10 04:53:25;;;;;;;12.60;6.97;;;;;;;9.87;100.00;95731.75;5050998;28;20205;-83
2020/12/10 04:55:53;;;;;;;10.27;5.63;;;;;;;9.87;100.00;95729.13;5050184;28;20190;-83
2020/12/10 04:58:21;;;;;;;9.83;6.10;;;;;;;9.93;100.00;95733.72;5051052;28;20628;-83
2020/12/10 05:00:48;;;;;;;8.27;5.90;;;;;;;9.90;100.00;95728.81;5050883;28;20201;-84
2020/12/10 05:03:16;;;;;;;12.43;7.07;;;;;;;9.83;100.00;95723.41;5051224;28;20255;-83
2020/12/10 05:05:43;;;;;;;12.80;8.00;;;;;;;9.84;100.00;95724.25;5051029;28;20232;-84
2020/12/10 05:08:11;;;;;;;9.77;8.33;;;;;;;9.82;100.00;95726.22;5052997;28;20282;-84
2020/12/10 05:10:44;;;;;;;9.27;7.83;;;;;;;9.82;100.00;95720.97;5053009;28;20197;-84
2020/12/10 05:13:13;;;;;;;9.17;8.10;;;;;;;9.82;100.00;95715.72;5053303;28;20194;-84
2020/12/10 05:15:41;;;;;;;14.90;9.07;;;;;;;9.83;100.00;95719.97;5052683;28;20240;-82
2020/12/10 05:18:09;;;;;;;21.43;12.10;;;;;;;9.81;100.00;95704.41;5053282;28;20651;-82
2020/12/10 05:20:41;;;;;;;18.23;14.50;;;;;;;9.77;100.00;95710.97;5052780;28;20237;-82
2020/12/10 05:23:08;;;;;;;27.20;17.10;;;;;;;9.74;100.00;95713.94;5052993;28;20244;-83
2020/12/10 05:25:53;;;;;;;26.63;19.10;;;;;;;9.77;100.00;95716.22;5052423;28;20232;-82
2020/12/10 05:28:21;;;;;;;16.37;9.47;;;;;;;9.75;100.00;95710.31;5052920;28;20276;-83
2020/12/10 05:31:03;;;;;;;11.07;7.40;;;;;;;9.76;100.00;95715.38;5052638;28;20251;-82
2020/12/10 05:33:30;;;;;;;14.87;11.13;;;;;;;9.75;100.00;95716.38;5052897;28;20186;-83
2020/12/10 05:36:07;;;;;;;12.80;7.47;;;;;;;9.68;100.00;95720.66;5052580;28;20280;-83
2020/12/10 05:38:34;;;;;;;9.43;7.33;;;;;;;9.67;100.00;95724.28;5052616;28;20690;-83
2020/12/10 05:41:20;;;;;;;15.10;9.73;;;;;;;9.66;100.00;95716.53;5052395;28;20901;-82
2020/12/10 05:43:46;;;;;;;13.87;7.90;;;;;;;9.67;100.00;95719.03;5052990;28;20182;-82
2020/12/10 05:46:19;;;;;;;15.63;5.90;;;;;;;9.66;100.00;95706.06;5052340;28;20698;-83
2020/12/10 05:48:47;;;;;;;8.83;7.50;;;;;;;9.62;100.00;95710.81;5052348;28;20193;-83
2020/12/10 05:51:19;;;;;;;4.10;3.70;;;;;;;9.64;100.00;95714.09;5052617;28;20271;-83
2020/12/10 05:53:47;;;;;;;5.90;3.63;;;;;;;9.64;100.00;95726.41;5052150;28;20190;-83
2020/12/10 05:56:15;;;;;;;9.97;4.80;;;;;;;9.61;100.00;95735.41;5052207;28;20293;-83
2020/12/10 05:58:50;;;;;;;18.00;10.83;;;;;;;9.66;100.00;95737.53;5052099;28;20662;-82
2020/12/10 06:01:34;;;;;;;8.77;6.00;;;;;;;9.63;100.00;95743.97;5052500;28;20223;-82
2020/12/10 06:04:01;;;;;;;7.57;3.97;;;;;;;9.60;100.00;95746.91;5052322;28;20185;-83
2020/12/10 06:06:30;;;;;;;6.83;4.70;;;;;;;9.59;100.00;95753.13;5051807;28;20269;-82
2020/12/10 06:09:05;;;;;;;7.27;5.93;;;;;;;9.57;100.00;95756.91;5052510;28;20582;-82
2020/12/10 06:11:33;;;;;;;4.83;4.23;;;;;;;9.53;100.00;95756.44;5052022;28;20669;-82
2020/12/10 06:14:02;;;;;;;3.37;2.90;;;;;;;9.50;100.00;95756.75;5052065;28;20259;-82
2020/12/10 06:16:30;;;;;;;5.23;3.20;;;;;;;9.48;100.00;95766.56;5051694;28;20225;-82
2020/12/10 06:19:02;;;;;;;7.20;4.47;;;;;;;9.45;100.00;95765.09;5051972;28;20248;-82
2020/12/10 06:21:33;;;;;;;5.03;3.73;;;;;;;9.49;100.00;95762.97;5051766;28;20245;-82
2020/12/10 06:24:00;;;;;;;7.77;4.53;;;;;;;9.43;100.00;95758.38;5051399;28;20198;-82
2020/12/10 06:26:38;;;;;;;6.00;4.80;;;;;;;9.45;100.00;95762.47;5051835;28;20268;-82
2020/12/10 06:29:22;;;;;;;5.33;4.83;;;;;;;9.44;100.00;95768.69;5052065;28;20233;-82
2020/12/10 06:32:08;;;;;;;11.37;9.87;;;;;;;9.43;100.00;95776.75;5051619;28;20174;-81
2020/12/10 06:34:37;;;;;;;12.53;7.50;;;;;;;9.45;100.00;95767.72;5051346;28;20581;-82
2020/12/10 06:37:20;;;;;;;10.43;8.47;;;;;;;9.40;100.00;95759.53;5051896;28;20243;-83
2020/12/10 06:39:49;;;;;;;12.30;11.10;;;;;;;9.41;100.00;95765.59;5052080;28;20204;-82
2020/12/10 06:42:16;;;;;;;11.53;8.40;;;;;;;9.45;100.00;95772.16;5051467;28;20710;-82
2020/12/10 06:44:43;;;;;;;10.80;9.57;;;;;;;9.45;100.00;95761.66;5051596;28;20209;-82
2020/12/10 06:47:11;;;;;;;10.90;9.53;;;;;;;9.44;100.00;95763.47;5051659;28;20754;-82
2020/12/10 06:49:38;;;;;;;26.27;18.57;;;;;;;9.44;100.00;95760.03;5052060;28;20232;-82
2020/12/10 06:52:15;;;;;;;12.97;8.37;;;;;;;9.43;100.00;95769.69;5051398;28;20202;-82
2020/12/10 06:55:19;;;;;;;12.20;8.00;;;;;;;9.45;100.00;95762.47;5052004;28;20182;-82
2020/12/10 06:58:04;;;;;;;9.50;6.20;;;;;;;9.46;100.00;95763.31;5051710;28;20722;-82
2020/12/10 07:00:43;;;;;;;5.97;3.80;;;;;;;9.46;100.00;95758.06;5051052;28;20202;-82
2020/12/10 07:03:19;;;;;;;7.53;4.63;;;;;;;9.45;100.00;95759.03;5034444;28;20247;-83
2020/12/10 07:05:48;;;;;;;5.83;3.70;;;;;;;9.41;100.00;95755.91;5052801;28;20701;-82
2020/12/10 07:08:18;;;;;;;2.60;2.40;;;;;;;9.48;100.00;95758.69;5055570;28;20197;-82
2020/12/10 07:10:49;;;;;;;5.97;4.53;;;;;;;9.49;100.00;95749.84;5038100;28;20636;-82
2020/12/10 07:13:18;;;;;;;7.03;3.70;;;;;;;9.50;100.00;95749.69;5055557;28;20194;-83
2020/12/10 07:15:49;;;;;;;5.33;4.83;;;;;;;9.58;100.00;95756.72;5055271;28;20662;-82
2020/12/10 07:18:17;;;;;;;4.70;3.03;;;;;;;9.64;100.00;95761.34;5055192;28;20198;-82
2020/12/10 07:20:44;;;;;;;3.43;2.93;;;;;;;9.64;100.00;95752.66;5055025;28;20245;-82
2020/12/10 07:23:10;;;;;;;5.90;1.83;;;;;;;9.71;100.00;95764.94;5055381;28;20201;-82
2020/12/10 07:25:37;;;;;;;4.10;1.50;;;;;;;9.75;100.00;95763.59;5054810;28;20261;-82
2020/12/10 07:28:05;;;;;;;4.40;2.50;;;;;;;9.76;100.00;95770.50;5055268;28;20198;-82
2020/12/10 07:30:32;;;;;;;4.53;2.40;;;;;;;9.77;100.00;95774.78;5055006;28;20674;-82
2020/12/10 07:33:03;;;;;;;2.90;2.00;;;;;;;9.79;100.00;95779.84;5055150;28;20208;-82
2020/12/10 07:35:33;;;;;;;4.47;3.93;;;;;;;9.75;100.00;95768.84;5055025;28;20187;-81
2020/12/10 07:38:11;;;;;;;3.30;3.00;;;;;;;9.74;100.00;95772.47;5055108;28;20256;-82
2020/12/10 07:40:38;;;;;;;5.80;3.00;;;;;;;9.82;100.00;95779.53;5054814;28;20214;-82
2020/12/10 07:43:07;;;;;;;7.90;4.57;;;;;;;9.84;100.00;95782.00;5047630;28;20198;-83
2020/12/10 07:45:35;;;;;;;3.43;3.13;;;;;;;9.79;100.00;95771.16;5053928;28;20677;-82
2020/12/10 07:48:03;;;;;;;5.23;4.03;;;;;;;9.85;100.00;95762.63;5054811;28;20339;-83
2020/12/10 07:50:32;;;;;;;6.13;4.23;;;;;;;9.82;100.00;95769.03;5053226;28;20198;-82
2020/12/10 07:53:04;;;;;;;9.13;5.63;;;;;;;9.86;100.00;95775.56;5054650;28;20629;-82
2020/12/10 07:55:34;;;;;;;6.30;5.00;;;;;;;9.87;100.00;95771.13;5054043;28;20605;-83
2020/12/10 07:58:13;;;;;;;10.87;5.67;;;;;;;9.93;100.00;95767.84;5054455;28;20188;-82
2020/12/10 08:00:41;;;;;;;4.80;3.30;;;;;;;9.90;100.00;95771.63;5053350;28;20186;-82
2020/12/10 08:03:19;;;;;;;5.50;3.67;;;;;;;9.87;100.00;95771.97;5054509;28;20236;-82
2020/12/10 08:06:00;;;;;;;5.90;3.37;;;;;;;9.86;100.00;95775.56;5054033;28;20212;-82
2020/12/10 08:08:36;;;;;;;4.27;3.57;;;;;;;9.90;100.00;95773.44;5054161;28;20228;-82
2020/12/10 08:11:10;;;;;;;8.33;4.60;;;;;;;9.89;100.00;95764.75;5054275;28;20223;-83
2020/12/10 08:13:37;;;;;;;5.67;3.10;;;;;;;9.86;100.00;95772.13;5054179;28;20578;-82
2020/12/10 08:16:09;;;;;;;7.13;6.37;;;;;;;9.86;100.00;95774.75;5053568;28;20194;-82
2020/12/10 08:18:36;;;;;;;4.43;2.93;;;;;;;9.76;100.00;95767.88;5053910;28;20724;-82
2020/12/10 08:21:06;;;;;;;7.00;4.43;;;;;;;9.79;100.00;95758.84;5053623;28;20234;-82
2020/12/10 08:23:45;;;;;;;5.17;3.70;;;;;;;9.85;100.00;95754.75;5054093;28;20193;-82
2020/12/10 08:26:13;;;;;;;17.97;13.07;;;;;;;9.91;100.00;95757.53;5054041;28;20260;-82
2020/12/10 08:28:40;;;;;;;6.93;4.20;;;;;;;9.92;100.00;95747.84;5053378;28;20209;-81
2020/12/10 08:31:07;;;;;;;3.63;3.07;;;;;;;9.93;100.00;95754.72;5053495;28;20315;-82
2020/12/10 08:33:35;;;;;;;4.70;4.13;;;;;;;9.94;100.00;95757.19;5053972;28;20285;-82
2020/12/10 08:36:03;;;;;;;4.20;3.90;;;;;;;10.00;100.00;95769.63;5053857;28;20225;-82
2020/12/10 08:38:30;;;;;;;3.27;2.97;;;;;;;10.05;100.00;95781.47;5033839;28;20239;-81
2020/12/10 08:40:58;;;;;;;2.10;1.97;;;;;;;10.06;100.00;95783.91;5033541;28;20683;-82
2020/12/10 08:43:25;;;;;;;4.93;4.53;;;;;;;10.07;100.00;95754.03;5046673;28;20205;-82
2020/12/10 08:45:52;;;;;;;9.07;5.10;;;;;;;10.08;100.00;95752.22;5053268;28;20384;-82
2020/12/10 08:48:26;;;;;;;2.87;2.47;;;;;;;9.93;100.00;95744.22;5053919;28;20658;-82
2020/12/10 08:50:55;;;;;;;4.73;3.10;;;;;;;9.93;100.00;95744.22;5053132;28;20181;-82
2020/12/10 08:53:23;;;;;;;7.37;3.30;;;;;;;9.89;100.00;95728.00;5053522;28;20296;-82
2020/12/10 08:55:53;;;;;;;9.23;8.03;;;;;;;9.94;100.00;95735.34;5053476;28;20208;-82
2020/12/10 08:58:22;;;;;;;7.47;4.10;;;;;;;9.95;100.00;95735.22;5053335;28;20240;-82
2020/12/10 09:00:49;;;;;;;3.57;3.07;;;;;;;9.96;100.00;95726.34;5052885;28;20225;-82
2020/12/10 09:03:16;;;;;;;3.40;2.77;;;;;;;9.91;100.00;95731.28;5053281;28;20247;-82
2020/12/10 09:05:42;;;;;;;4.37;2.33;;;;;;;9.92;100.00;95722.41;5053068;28;20225;-82
2020/12/10 09:08:09;;;;;;;2.53;1.97;;;;;;;9.92;100.00;95700.59;5052954;28;20268;-82
2020/12/10 09:10:37;;;;;;;5.63;3.70;;;;;;;10.00;100.00;95704.00;5053078;28;20196;-83
2020/12/10 09:13:04;;;;;;;5.10;4.33;;;;;;;10.08;100.00;95705.81;5053003;28;20296;-83
2020/12/10 09:15:31;;;;;;;4.17;3.57;;;;;;;10.11;100.00;95704.63;5053055;28;20292;-82
2020/12/10 09:17:58;;;;;;;4.27;2.50;;;;;;;10.13;100.00;95706.09;5053261;28;20631;-82
2020/12/10 09:20:25;;;;;;;4.03;2.20;;;;;;;10.13;100.00;95713.97;5052396;28;20233;-82
2020/12/10 09:22:52;;;;;;;3.23;2.60;;;;;;;10.18;100.00;95711.69;5052951;28;20202;-83
2020/12/10 09:25:19;;;;;;;2.90;2.30;;;;;;;10.16;100.00;95708.41;5052995;28;20224;-83
2020/12/10 09:27:46;;;;;;;5.73;3.43;;;;;;;10.11;100.00;95710.69;5052181;28;20280;-82
2020/12/10 09:30:13;;;;;;;6.33;4.83;;;;;;;10.11;100.00;95713.31;5052124;28;20236;-82
2020/12/10 09:32:42;;;;;;;8.27;4.70;;;;;;;10.11;100.00;95705.44;5053010;28;20284;-83
2020/12/10 09:35:11;;;;;;;6.67;5.60;;;;;;;10.07;100.00;95706.78;5052509;28;20230;-82
2020/12/10 09:37:38;;;;;;;4.00;2.30;;;;;;;10.11;100.00;95710.69;5052539;28;20209;-82
2020/12/10 09:40:08;;;;;;;5.03;3.30;;;;;;;10.08;100.00;95705.81;5052058;28;20293;-82
2020/12/10 09:42:38;;;;;;;3.37;3.07;;;;;;;10.10;100.00;95695.94;5052532;28;20679;-81
2020/12/10 09:45:06;;;;;;;3.57;1.53;;;;;;;10.10;100.00;95700.38;5052205;28;20301;-82
2020/12/10 09:47:33;;;;;;;3.43;2.60;;;;;;;10.07;100.00;95698.09;5052753;28;20244;-81
2020/12/10 09:50:00;;;;;;;6.07;2.93;;;;;;;10.08;100.00;95699.72;5051933;28;20279;-82
2020/12/10 09:52:28;;;;;;;5.80;2.50;;;;;;;10.03;100.00;95715.97;5052334;28;20625;-82
2020/12/10 09:55:06;;;;;;;4.43;2.83;;;;;;;10.03;100.00;95717.78;5052390;28;20280;-81
2020/12/10 09:57:32;;;;;;;6.07;3.33;;;;;;;10.01;100.00;95710.09;5052089;28;20189;-82
2020/12/10 10:00:01;;;;;;;3.50;2.77;;;;;;;9.98;100.00;95715.69;5051854;28;20670;-82
2020/12/10 10:02:29;;;;;;;6.67;3.10;;;;;;;9.98;100.00;95705.19;5052141;28;20205;-82
2020/12/10 10:04:55;;;;;;;4.00;2.67;;;;;;;9.97;100.00;95701.72;5051615;28;20679;-82
2020/12/10 10:07:22;;;;;;;5.93;3.37;;;;;;;9.92;100.00;95703.22;5052074;28;20206;-82
2020/12/10 10:09:50;;;;;;;4.47;3.53;;;;;;;9.95;100.00;95703.69;5051971;28;20198;-82
2020/12/10 10:12:16;;;;;;;4.57;2.83;;;;;;;9.90;100.00;95705.19;5051971;28;20201;-82
2020/12/10 10:14:43;;;;;;;6.10;3.53;;;;;;;9.85;100.00;95704.88;5051754;28;20202;-82
2020/12/10 10:17:11;;;;;;;3.37;2.33;;;;;;;9.85;100.00;95715.38;5051893;28;20220;-82
2020/12/10 10:19:39;;;;;;;5.07;2.60;;;;;;;9.86;100.00;95712.56;5051759;28;20289;-82
2020/12/10 10:22:06;;;;;;;4.17;3.53;;;;;;;9.83;100.00;95710.28;5051716;28;20233;-82
2020/12/10 10:24:33;;;;;;;4.87;3.30;;;;;;;9.85;100.00;95700.44;5051823;28;20766;-81
2020/12/10 10:27:00;;;;;;;3.83;2.77;;;;;;;9.80;100.00;95717.66;5051638;28;20222;-82
2020/12/10 10:29:27;;;;;;;6.67;2.60;;;;;;;9.76;100.00;95712.75;5051901;28;20686;-82
2020/12/10 10:31:54;;;;;;;4.27;3.97;;;;;;;9.82;100.00;95705.22;5051496;28;20255;-82
2020/12/10 10:34:21;;;;;;;5.30;4.20;;;;;;;9.78;100.00;95688.97;5051713;28;20232;-82
2020/12/10 10:36:50;;;;;;;4.40;4.03;;;;;;;9.75;100.00;95686.69;5051698;28;20197;-82
2020/12/10 10:39:18;;;;;;;12.27;8.37;;;;;;;9.75;100.00;95705.88;5051678;28;20197;-83
2020/12/10 10:41:46;;;;;;;2.37;2.17;;;;;;;9.75;100.00;95707.69;5051569;28;20256;-82
2020/12/10 10:44:13;;;;;;;8.10;6.07;;;;;;;9.74;100.00;95699.00;5051852;28;20221;-83
2020/12/10 10:46:39;;;;;;;6.00;4.73;;;;;;;9.71;100.00;95704.56;5051602;28;20268;-82
2020/12/10 10:49:06;;;;;;;5.27;4.77;;;;;;;9.75;100.00;95700.63;5051593;28;20255;-83
2020/12/10 10:51:33;;;;;;;3.67;1.73;;;;;;;9.63;100.00;95706.38;5050191;28;20380;-84
2020/12/10 10:54:01;;;;;;;7.10;2.00;;;;;;;9.64;100.00;95714.09;5051485;28;20205;-83
2020/12/10 10:56:28;;;;;;;2.60;2.40;;;;;;;9.63;100.00;95712.47;5051695;28;20273;-83
2020/12/10 10:58:55;;;;;;;5.70;4.57;;;;;;;9.63;100.00;95719.50;5051518;28;20202;-82
2020/12/10 11:01:29;;;;;;;7.07;5.10;;;;;;;9.57;100.00;95691.31;5051132;28;20197;-83
2020/12/10 11:03:56;;;;;;;3.03;2.13;;;;;;;9.58;100.00;95696.38;5051404;28;20204;-83
2020/12/10 11:06:23;;;;;;;5.10;4.00;;;;;;;9.55;100.00;95688.03;5051201;28;20304;-82
2020/12/10 11:08:50;;;;;;;3.27;2.97;;;;;;;9.51;100.00;95683.13;5051518;28;20666;-82
2020/12/10 11:11:22;;;;;;;5.43;3.33;;;;;;;9.52;100.00;95678.69;5051054;28;20243;-83
2020/12/10 11:13:49;;;;;;;3.17;2.87;;;;;;;9.52;100.00;95679.53;5051436;28;20198;-82
2020/12/10 11:16:16;;;;;;;4.93;2.73;;;;;;;9.57;100.00;95678.22;5051081;28;20198;-83
2020/12/10 11:18:44;;;;;;;4.80;4.30;;;;;;;9.59;100.00;95692.78;5051294;28;20202;-83
2020/12/10 11:21:11;;;;;;;3.10;2.83;;;;;;;9.60;100.00;95685.75;5049786;28;20245;-82
2020/12/10 11:23:38;;;;;;;6.17;3.50;;;;;;;9.56;100.00;95664.28;5051148;28;20198;-83
2020/12/10 11:26:05;;;;;;;1.33;1.23;;;;;;;9.56;100.00;95679.16;5050833;28;20582;-83
2020/12/10 11:28:33;;;;;;;1.73;1.33;;;;;;;9.52;100.00;95671.66;5051445;28;20205;-83
2020/12/10 11:30:59;;;;;;;9.17;8.27;;;;;;;9.49;100.00;95660.66;5051344;28;20284;-83
2020/12/10 11:33:26;;;;;;;3.57;3.20;;;;;;;9.50;100.00;95678.06;5051273;28;20201;-83